Time;durP1;ratioP1;P1;durP2;ratioP2;P2;SDS_P1;SDS_P2;PMS_P1;PMS_P2;Temp;Humidity;BMP_temperature;BMP_pressure;BME280_temperature;BME280_humidity;BME280_pressure;Samples;Min_cycle;Max_cycle;Signal;HPM_P1;HPM_P2
2024/02/14 00:02:15;;;;;;;;;;;5.80;87.40;;;;;;4968640;28;19941;-74
2024/02/14 00:04:48;;;;;;;;;;;5.80;87.40;;;;;;4970446;28;20404;-74
2024/02/14 00:07:21;;;;;;;;;;;5.70;87.50;;;;;;4969277;28;19926;-75
2024/02/14 00:09:54;;;;;;;;;;;5.80;87.60;;;;;;4970638;28;19926;-71
2024/02/14 00:12:24;;;;;;;;;;;5.70;87.60;;;;;;4970518;28;19930;-72
2024/02/14 00:14:57;;;;;;;;;;;5.70;87.70;;;;;;4968506;28;19926;-73
2024/02/14 00:17:30;;;;;;;;;;;5.70;87.70;;;;;;4970857;28;20040;-73
2024/02/14 00:20:04;;;;;;;;;;;5.80;87.70;;;;;;4970405;28;19930;-73
2024/02/14 00:22:37;;;;;;;;;;;5.80;87.80;;;;;;4971350;28;19977;-73
2024/02/14 00:25:11;;;;;;;;;;;5.70;87.80;;;;;;4968642;28;19927;-75
2024/02/14 00:27:46;;;;;;;;;;;5.80;87.80;;;;;;4971063;28;19934;-73
2024/02/14 00:30:19;;;;;;;;;;;5.80;87.90;;;;;;4976416;28;20530;-75
2024/02/14 00:32:52;;;;;;;;;;;5.80;87.90;;;;;;4970444;28;19926;-74
2024/02/14 00:35:25;;;;;;;;;;;5.80;87.90;;;;;;4970217;28;20027;-71
2024/02/14 00:37:58;;;;;;;;;;;5.90;87.90;;;;;;4967457;28;19930;-75
2024/02/14 00:40:32;;;;;;;;;;;5.80;88.00;;;;;;4970311;28;19933;-74
2024/02/14 00:43:07;;;;;;;;;;;5.90;87.90;;;;;;4968053;28;19929;-61
2024/02/14 00:45:47;;;;;;;;;;;5.90;88.00;;;;;;4969867;28;19926;-75
2024/02/14 00:48:20;;;;;;;;;;;5.90;87.90;;;;;;4968635;28;19934;-74
2024/02/14 00:50:54;;;;;;;;;;;5.90;88.00;;;;;;4967863;28;19930;-74
2024/02/14 00:53:27;;;;;;;;;;;5.90;88.10;;;;;;4968401;28;19926;-75
2024/02/14 00:56:00;;;;;;;;;;;5.90;88.00;;;;;;4969377;28;19930;-75
2024/02/14 00:58:35;;;;;;;;;;;6.00;88.00;;;;;;4969764;28;20504;-73
2024/02/14 01:01:08;;;;;;;;;;;5.90;88.00;;;;;;4968881;28;19926;-71
2024/02/14 01:03:41;;;;;;;;;;;5.90;88.00;;;;;;4970399;28;19934;-73
2024/02/14 01:06:15;;;;;;;;;;;5.90;87.90;;;;;;4968939;28;20381;-73
2024/02/14 01:08:48;;;;;;;;;;;5.90;88.00;;;;;;4968887;28;20377;-73
2024/02/14 01:11:21;;;;;;;;;;;5.90;88.00;;;;;;4968215;28;20396;-72
2024/02/14 01:13:55;;;;;;;;;;;5.90;88.00;;;;;;4969436;28;19997;-71
2024/02/14 01:16:28;;;;;;;;;;;5.90;88.00;;;;;;4969860;28;20508;-74
2024/02/14 01:19:01;;;;;;;;;;;6.00;88.00;;;;;;4968296;28;19927;-74
2024/02/14 01:21:28;;;;;;;;;;;6.00;88.00;;;;;;4968099;28;19926;-74
2024/02/14 01:24:01;;;;;;;;;;;6.00;88.00;;;;;;4969373;28;19926;-73
2024/02/14 01:26:34;;;;;;;;;;;6.00;88.00;;;;;;4970103;28;20387;-73
2024/02/14 01:29:09;;;;;;;;;;;6.00;88.10;;;;;;4969452;28;20381;-74
2024/02/14 01:31:42;;;;;;;;;;;6.00;88.00;;;;;;4970265;28;19937;-74
2024/02/14 01:34:15;;;;;;;;;;;6.00;88.00;;;;;;4969696;28;20053;-74
2024/02/14 01:36:48;;;;;;;;;;;6.00;88.20;;;;;;4965663;28;20412;-73
2024/02/14 01:39:21;;;;;;;;;;;6.00;88.20;;;;;;4967271;28;19936;-72
2024/02/14 01:41:54;;;;;;;;;;;6.00;88.20;;;;;;4969850;28;19937;-72
2024/02/14 01:44:29;;;;;;;;;;;6.00;88.10;;;;;;4969197;28;19930;-72
2024/02/14 01:47:02;;;;;;;;;;;6.00;88.00;;;;;;4965467;28;20033;-74
2024/02/14 01:49:36;;;;;;;;;;;6.00;88.10;;;;;;4969074;28;20033;-74
2024/02/14 01:52:09;;;;;;;;;;;6.00;88.30;;;;;;4969402;28;19930;-73
2024/02/14 01:54:43;;;;;;;;;;;6.00;88.20;;;;;;4968307;28;19930;-59
2024/02/14 01:57:16;;;;;;;;;;;6.00;88.20;;;;;;4961994;28;20266;-60
2024/02/14 01:59:52;;;;;;;;;;;6.00;88.30;;;;;;4973399;28;19926;-60
2024/02/14 02:02:26;;;;;;;;;;;6.00;88.40;;;;;;4971769;28;19929;-60
2024/02/14 02:05:00;;;;;;;;;;;6.00;88.50;;;;;;4964369;28;20309;-61
2024/02/14 02:07:32;;;;;;;;;;;6.00;88.50;;;;;;4972754;28;19926;-60
2024/02/14 02:10:06;;;;;;;;;;;6.00;88.60;;;;;;4970292;28;19973;-59
2024/02/14 02:12:39;;;;;;;;;;;6.00;88.60;;;;;;4973343;28;19930;-60
2024/02/14 02:15:10;;;;;;;;;;;6.00;88.60;;;;;;4973044;28;19937;-60
2024/02/14 02:17:45;;;;;;;;;;;6.00;88.70;;;;;;4971972;28;19936;-60
2024/02/14 02:20:19;;;;;;;;;;;6.00;88.70;;;;;;4972788;28;19973;-60
2024/02/14 02:22:54;;;;;;;;;;;6.00;88.90;;;;;;4974099;28;19926;-59
2024/02/14 02:25:27;;;;;;;;;;;6.00;88.90;;;;;;4975611;28;19930;-60
2024/02/14 02:28:00;;;;;;;;;;;6.00;88.80;;;;;;4976234;28;20463;-60
2024/02/14 02:30:35;;;;;;;;;;;6.00;88.90;;;;;;4976957;28;19976;-61
2024/02/14 02:33:08;;;;;;;;;;;6.00;88.90;;;;;;4975223;28;19930;-59
2024/02/14 02:35:44;;;;;;;;;;;6.10;88.90;;;;;;4972319;28;19976;-59
2024/02/14 02:38:19;;;;;;;;;;;6.10;89.00;;;;;;4965988;28;19932;-60
2024/02/14 02:40:52;;;;;;;;;;;6.00;89.00;;;;;;4973434;28;20448;-60
2024/02/14 02:43:25;;;;;;;;;;;6.10;89.00;;;;;;4966602;28;19930;-60
2024/02/14 02:45:58;;;;;;;;;;;6.10;89.00;;;;;;4972181;28;19930;-60
2024/02/14 02:48:31;;;;;;;;;;;6.10;89.10;;;;;;4972242;28;19957;-59
2024/02/14 02:51:05;;;;;;;;;;;6.10;89.00;;;;;;4971087;28;19926;-59
2024/02/14 02:53:40;;;;;;;;;;;6.10;89.10;;;;;;4972769;28;19937;-60
2024/02/14 02:56:14;;;;;;;;;;;6.10;89.10;;;;;;4961723;28;19930;-60
2024/02/14 02:58:48;;;;;;;;;;;6.10;89.10;;;;;;4969921;28;19926;-59
2024/02/14 03:01:24;;;;;;;;;;;6.10;89.10;;;;;;4970305;28;19926;-60
2024/02/14 03:03:58;;;;;;;;;;;6.10;89.10;;;;;;4968799;28;19941;-62
2024/02/14 03:06:31;;;;;;;;;;;6.10;89.20;;;;;;4970867;28;20025;-62
2024/02/14 03:09:07;;;;;;;;;;;6.10;89.20;;;;;;4969344;28;19930;-62
2024/02/14 03:11:40;;;;;;;;;;;6.10;89.10;;;;;;4971176;28;20584;-61
2024/02/14 03:14:13;;;;;;;;;;;6.10;89.20;;;;;;4968747;28;19934;-62
2024/02/14 03:16:46;;;;;;;;;;;6.20;89.10;;;;;;4970506;28;20305;-61
2024/02/14 03:19:22;;;;;;;;;;;6.20;89.20;;;;;;4968269;28;20018;-62
2024/02/14 03:21:54;;;;;;;;;;;6.10;89.30;;;;;;4970780;28;19932;-64
2024/02/14 03:24:29;;;;;;;;;;;6.10;89.30;;;;;;4969271;28;20017;-62
2024/02/14 03:27:04;;;;;;;;;;;6.20;89.30;;;;;;4969620;28;19926;-61
2024/02/14 03:29:50;;;;;;;;;;;6.20;89.20;;;;;;4971334;28;19985;-61
2024/02/14 03:32:30;;;;;;;;;;;6.20;89.10;;;;;;4970270;28;19933;-63
2024/02/14 03:35:03;;;;;;;;;;;6.20;89.40;;;;;;4962285;28;20385;-62
2024/02/14 03:37:30;;;;;;;;;;;6.20;89.40;;;;;;4971507;28;19926;-63
2024/02/14 03:40:06;;;;;;;;;;;6.20;89.00;;;;;;4965228;28;19932;-62
2024/02/14 03:42:40;;;;;;;;;;;6.20;89.20;;;;;;4963705;28;20061;-62
2024/02/14 03:45:12;;;;;;;;;;;6.20;89.20;;;;;;4969287;28;19934;-62
2024/02/14 03:47:45;;;;;;;;;;;6.20;89.20;;;;;;4970077;28;20021;-61
2024/02/14 03:50:18;;;;;;;;;;;6.20;89.10;;;;;;4970647;28;19930;-62
2024/02/14 03:52:51;;;;;;;;;;;6.20;89.30;;;;;;4970341;28;19926;-61
2024/02/14 03:58:29;;;;;;;;;;;6.30;89.20;;;;;;4969959;28;19965;-61
2024/02/14 04:01:02;;;;;;;;;;;6.40;89.10;;;;;;4969561;28;19926;-63
2024/02/14 04:03:35;;;;;;;;;;;6.40;89.00;;;;;;4970852;28;19933;-62
2024/02/14 04:06:08;;;;;;;;;;;6.40;88.70;;;;;;4970428;28;19926;-62
2024/02/14 04:08:41;;;;;;;;;;;6.40;88.90;;;;;;4971288;28;20346;-63
2024/02/14 04:11:14;;;;;;;;;;;6.50;88.80;;;;;;4968072;28;20377;-63
2024/02/14 04:13:49;;;;;;;;;;;6.50;88.70;;;;;;4968272;28;19926;-59
2024/02/14 04:16:22;;;;;;;;;;;6.50;88.50;;;;;;4970382;28;19981;-60
2024/02/14 04:18:56;;;;;;;;;;;6.50;88.20;;;;;;4970189;28;20313;-60
2024/02/14 04:21:29;;;;;;;;;;;6.60;88.00;;;;;;4969310;28;20383;-60
2024/02/14 04:24:02;;;;;;;;;;;6.60;87.70;;;;;;4968521;28;20340;-60
2024/02/14 04:26:36;;;;;;;;;;;6.70;87.50;;;;;;4971432;28;20013;-60
2024/02/14 04:29:11;;;;;;;;;;;6.70;87.30;;;;;;4968852;28;19953;-59
2024/02/14 04:31:44;;;;;;;;;;;6.70;87.20;;;;;;4970121;28;19933;-60
2024/02/14 04:34:19;;;;;;;;;;;6.70;86.90;;;;;;4970419;28;20395;-60
2024/02/14 04:36:52;;;;;;;;;;;6.70;86.60;;;;;;4970656;28;19936;-60
2024/02/14 04:39:25;;;;;;;;;;;6.80;86.50;;;;;;4967680;28;19930;-60
2024/02/14 04:41:58;;;;;;;;;;;6.80;86.40;;;;;;4968974;28;19980;-59
2024/02/14 04:44:34;;;;;;;;;;;6.80;86.40;;;;;;4970556;28;20531;-60
2024/02/14 04:47:09;;;;;;;;;;;6.80;86.10;;;;;;4968871;28;19926;-59
2024/02/14 04:49:42;;;;;;;;;;;6.90;86.00;;;;;;4970152;28;20266;-59
2024/02/14 04:52:16;;;;;;;;;;;6.90;85.70;;;;;;4969529;28;20540;-60
2024/02/14 04:54:43;;;;;;;;;;;7.00;85.70;;;;;;4970319;28;19932;-59
2024/02/14 04:57:16;;;;;;;;;;;6.90;85.70;;;;;;4969158;28;19930;-65
2024/02/14 04:59:51;;;;;;;;;;;6.90;85.60;;;;;;4967472;28;20001;-60
2024/02/14 05:02:24;;;;;;;;;;;7.00;85.90;;;;;;4969484;28;19926;-59
2024/02/14 05:04:58;;;;;;;;;;;7.10;86.00;;;;;;4969750;28;20293;-59
2024/02/14 05:07:31;;;;;;;;;;;7.00;86.20;;;;;;4969594;28;19933;-60
2024/02/14 05:10:06;;;;;;;;;;;7.10;86.50;;;;;;4970046;28;20373;-59
2024/02/14 05:12:40;;;;;;;;;;;7.00;86.50;;;;;;4968280;28;19997;-60
2024/02/14 05:15:16;;;;;;;;;;;7.00;86.80;;;;;;4968123;28;19932;-60
2024/02/14 05:17:50;;;;;;;;;;;7.00;86.90;;;;;;4968925;28;19941;-60
2024/02/14 05:20:23;;;;;;;;;;;7.00;87.10;;;;;;4969447;28;19926;-59
2024/02/14 05:22:56;;;;;;;;;;;7.00;87.20;;;;;;4969860;28;19930;-60
2024/02/14 05:25:32;;;;;;;;;;;7.00;87.70;;;;;;4967947;28;19929;-61
2024/02/14 05:28:06;;;;;;;;;;;7.00;87.90;;;;;;4968019;28;19934;-61
2024/02/14 05:30:41;;;;;;;;;;;7.00;87.90;;;;;;4970349;28;20268;-61
2024/02/14 05:33:14;;;;;;;;;;;7.00;88.10;;;;;;4972683;28;20377;-60
2024/02/14 05:35:47;;;;;;;;;;;7.00;88.20;;;;;;4972635;28;19930;-62
2024/02/14 05:38:20;;;;;;;;;;;7.00;88.20;;;;;;4973169;28;20297;-61
2024/02/14 05:41:19;;;;;;;;;;;7.00;88.40;;;;;;4970302;28;20444;-62
2024/02/14 05:43:52;;;;;;;;;;;7.00;88.50;;;;;;4973467;28;19926;-62
2024/02/14 05:46:27;;;;;;;;;;;7.00;88.30;;;;;;4971485;28;19926;-61
2024/02/14 05:49:01;;;;;;;;;;;7.00;88.60;;;;;;4971262;28;19926;-60
2024/02/14 05:51:33;;;;;;;;;;;7.00;88.70;;;;;;4972932;28;19926;-62
2024/02/14 05:54:06;;;;;;;;;;;7.00;88.60;;;;;;4972140;28;19926;-61
2024/02/14 05:56:41;;;;;;;;;;;7.00;88.80;;;;;;4971806;28;20385;-61
2024/02/14 05:59:14;;;;;;;;;;;7.00;88.80;;;;;;4972280;28;19963;-61
2024/02/14 06:01:49;;;;;;;;;;;7.00;88.80;;;;;;4972629;28;19930;-62
2024/02/14 06:04:22;;;;;;;;;;;7.00;88.70;;;;;;4971208;28;19930;-62
2024/02/14 06:07:05;;;;;;;;;;;7.00;88.90;;;;;;4971423;28;20275;-61
2024/02/14 06:09:38;;;;;;;;;;;7.00;88.70;;;;;;4972442;28;19930;-61
2024/02/14 06:12:11;;;;;;;;;;;7.00;88.80;;;;;;4972637;28;20063;-61
2024/02/14 06:14:45;;;;;;;;;;;7.00;88.80;;;;;;4972211;28;20303;-61
2024/02/14 06:17:20;;;;;;;;;;;7.00;88.80;;;;;;4972968;28;19926;-60
2024/02/14 06:19:52;;;;;;;;;;;7.00;88.80;;;;;;4972432;28;20289;-61
2024/02/14 06:22:25;;;;;;;;;;;7.00;89.20;;;;;;4970979;28;20293;-61
2024/02/14 06:24:58;;;;;;;;;;;7.00;88.90;;;;;;4972054;28;20008;-60
2024/02/14 06:27:25;;;;;;;;;;;7.00;89.10;;;;;;4971741;28;19926;-61
2024/02/14 06:29:59;;;;;;;;;;;7.00;89.00;;;;;;4971876;28;19933;-60
2024/02/14 06:32:34;;;;;;;;;;;7.00;89.00;;;;;;4972940;28;20329;-60
2024/02/14 06:35:07;;;;;;;;;;;7.00;89.10;;;;;;4970943;28;19988;-60
2024/02/14 06:37:40;;;;;;;;;;;7.00;88.80;;;;;;4968453;28;19942;-59
2024/02/14 06:40:14;;;;;;;;;;;7.00;89.10;;;;;;4971811;28;19953;-60
2024/02/14 06:42:48;;;;;;;;;;;7.00;89.20;;;;;;4972596;28;20334;-59
2024/02/14 06:45:22;;;;;;;;;;;7.00;89.20;;;;;;4967347;28;19933;-59
2024/02/14 06:47:57;;;;;;;;;;;7.00;89.20;;;;;;4971788;28;19941;-60
2024/02/14 06:50:31;;;;;;;;;;;7.00;89.20;;;;;;4971598;28;19925;-60
2024/02/14 06:53:04;;;;;;;;;;;7.00;89.30;;;;;;4972128;28;20373;-60
2024/02/14 06:55:31;;;;;;;;;;;7.00;89.20;;;;;;4970523;28;20008;-59
2024/02/14 06:58:05;;;;;;;;;;;7.10;89.30;;;;;;4971961;28;19961;-59
2024/02/14 07:00:39;;;;;;;;;;;7.00;89.10;;;;;;4972456;28;19934;-60
2024/02/14 07:03:14;;;;;;;;;;;7.00;89.20;;;;;;4970034;28;19945;-59
2024/02/14 07:05:47;;;;;;;;;;;7.10;89.20;;;;;;4971038;28;19936;-60
2024/02/14 07:08:20;;;;;;;;;;;7.10;89.20;;;;;;4971637;28;19926;-59
2024/02/14 07:10:53;;;;;;;;;;;7.10;89.20;;;;;;4970822;28;20017;-59
2024/02/14 07:13:27;;;;;;;;;;;7.10;89.30;;;;;;4970767;28;19930;-59
2024/02/14 07:15:59;;;;;;;;;;;7.10;89.30;;;;;;4971559;28;19954;-64
2024/02/14 07:18:34;;;;;;;;;;;7.10;89.20;;;;;;4969954;28;20443;-60
2024/02/14 07:21:07;;;;;;;;;;;7.10;89.20;;;;;;4969290;28;19926;-59
2024/02/14 07:23:47;;;;;;;;;;;7.10;89.40;;;;;;4972199;28;19930;-59
2024/02/14 07:26:20;;;;;;;;;;;7.10;89.40;;;;;;4971358;28;19926;-60
2024/02/14 07:29:28;;;;;;;;;;;7.10;89.30;;;;;;4967907;28;19930;-61
2024/02/14 07:32:02;;;;;;;;;;;7.10;89.40;;;;;;4970387;28;19961;-60
2024/02/14 07:34:39;;;;;;;;;;;7.10;89.30;;;;;;4970320;28;19926;-60
2024/02/14 07:37:14;;;;;;;;;;;7.10;89.70;;;;;;4969900;28;19996;-59
2024/02/14 07:39:47;;;;;;;;;;;7.20;90.10;;;;;;4970952;28;19934;-58
2024/02/14 07:46:02;;;;;;;;;;;7.20;90.30;;;;;;4969084;28;19991;-61
2024/02/14 07:48:35;;;;;;;;;;;7.20;90.50;;;;;;4968814;28;20033;-59
2024/02/14 07:51:10;;;;;;;;;;;7.20;90.60;;;;;;4968846;28;19981;-58
2024/02/14 07:53:58;;;;;;;;;;;7.20;90.50;;;;;;4969746;28;20465;-59
2024/02/14 07:56:44;;;;;;;;;;;7.20;90.20;;;;;;4969624;28;19926;-58
2024/02/14 07:59:17;;;;;;;;;;;7.20;90.30;;;;;;4955981;28;19926;-60
2024/02/14 08:01:50;;;;;;;;;;;7.30;90.30;;;;;;4971522;28;19926;-59
2024/02/14 08:04:24;;;;;;;;;;;7.30;90.70;;;;;;4969799;28;19973;-59
2024/02/14 08:06:58;;;;;;;;;;;7.40;90.60;;;;;;4969528;28;19996;-60
2024/02/14 08:13:07;;;;;;;;;;;7.50;90.50;;;;;;4970470;28;19968;-60
2024/02/14 08:15:41;;;;;;;;;;;7.60;90.70;;;;;;4964476;28;20020;-59
2024/02/14 08:18:14;;;;;;;;;;;7.60;90.50;;;;;;4970537;28;19973;-58
2024/02/14 08:20:47;;;;;;;;;;;7.60;90.50;;;;;;4966901;28;19934;-60
2024/02/14 08:23:49;;;;;;;;;;;7.60;90.80;;;;;;4970618;28;19950;-59
2024/02/14 08:26:24;;;;;;;;;;;7.60;90.70;;;;;;4962657;28;19927;-60
2024/02/14 08:28:58;;;;;;;;;;;7.70;90.60;;;;;;4967587;28;19937;-61
2024/02/14 08:31:32;;;;;;;;;;;7.70;90.70;;;;;;4971990;28;19926;-59
2024/02/14 08:33:59;;;;;;;;;;;7.70;90.80;;;;;;4979726;28;20373;-60
2024/02/14 08:36:33;;;;;;;;;;;7.70;90.80;;;;;;4960056;28;19926;-59
2024/02/14 08:39:06;;;;;;;;;;;7.70;90.80;;;;;;4972095;28;19965;-59
2024/02/14 08:41:43;;;;;;;;;;;7.70;90.80;;;;;;4968576;28;20515;-59
2024/02/14 08:44:17;;;;;;;;;;;7.80;90.80;;;;;;4961889;28;20271;-59
2024/02/14 08:46:51;;;;;;;;;;;7.80;90.90;;;;;;4964450;28;20222;-59
2024/02/14 08:49:24;;;;;;;;;;;7.80;90.70;;;;;;4967262;28;20463;-60
2024/02/14 08:51:51;;;;;;;;;;;7.90;90.80;;;;;;4965007;28;19941;-60
2024/02/14 08:54:25;;;;;;;;;;;7.90;90.70;;;;;;4969325;28;20510;-70
2024/02/14 08:56:59;;;;;;;;;;;8.00;90.60;;;;;;4968969;28;20388;-71
2024/02/14 08:59:33;;;;;;;;;;;8.10;90.70;;;;;;4967222;28;19930;-72
2024/02/14 09:02:05;;;;;;;;;;;8.20;90.70;;;;;;4967992;28;19930;-70
2024/02/14 09:04:39;;;;;;;;;;;8.20;90.50;;;;;;4963879;28;19937;-71
2024/02/14 09:07:11;;;;;;;;;;;8.20;90.40;;;;;;4958234;28;19934;-69
2024/02/14 09:09:46;;;;;;;;;;;8.30;90.30;;;;;;4957156;28;20370;-71
2024/02/14 09:12:20;;;;;;;;;;;8.30;90.20;;;;;;4965224;28;19926;-71
2024/02/14 09:14:53;;;;;;;;;;;8.30;90.10;;;;;;4966954;28;19961;-70
2024/02/14 09:17:27;;;;;;;;;;;8.40;90.10;;;;;;4965945;28;20341;-71
2024/02/14 09:20:00;;;;;;;;;;;8.50;90.00;;;;;;4967237;28;20052;-71
2024/02/14 09:22:34;;;;;;;;;;;8.50;89.80;;;;;;4969066;28;19994;-71
2024/02/14 09:25:08;;;;;;;;;;;8.50;89.70;;;;;;4968110;28;19965;-70
2024/02/14 09:27:44;;;;;;;;;;;8.50;89.70;;;;;;4974194;28;19930;-70
2024/02/14 09:30:17;;;;;;;;;;;8.50;89.70;;;;;;4967681;28;19934;-70
2024/02/14 09:32:51;;;;;;;;;;;8.50;89.80;;;;;;4969608;28;19974;-71
2024/02/14 09:35:25;;;;;;;;;;;8.60;89.70;;;;;;4968461;28;19934;-71
2024/02/14 09:37:59;;;;;;;;;;;8.60;89.70;;;;;;4968123;28;19945;-70
2024/02/14 09:40:32;;;;;;;;;;;8.60;89.60;;;;;;4968474;28;19976;-72
2024/02/14 09:43:08;;;;;;;;;;;8.60;89.60;;;;;;4967148;28;19984;-70
2024/02/14 09:45:43;;;;;;;;;;;8.60;89.50;;;;;;4969289;28;19934;-71
2024/02/14 09:48:17;;;;;;;;;;;8.60;89.50;;;;;;4967211;28;19934;-70
2024/02/14 09:50:50;;;;;;;;;;;8.70;89.30;;;;;;4968128;28;19929;-69
2024/02/14 09:53:23;;;;;;;;;;;8.70;89.30;;;;;;4966833;28;19930;-71
2024/02/14 09:55:57;;;;;;;;;;;8.70;89.30;;;;;;4968487;28;20083;-70
2024/02/14 09:58:32;;;;;;;;;;;8.80;89.20;;;;;;4969824;28;19934;-70
2024/02/14 10:01:06;;;;;;;;;;;8.80;89.20;;;;;;4968587;28;19926;-72
2024/02/14 10:03:39;;;;;;;;;;;8.80;89.00;;;;;;4969032;28;19926;-61
2024/02/14 10:06:12;;;;;;;;;;;8.80;89.00;;;;;;4966930;28;19931;-61
2024/02/14 10:08:46;;;;;;;;;;;8.80;88.90;;;;;;4967757;28;20389;-61
2024/02/14 10:11:21;;;;;;;;;;;8.90;88.90;;;;;;4969085;28;20017;-61
2024/02/14 10:14:00;;;;;;;;;;;8.90;88.80;;;;;;4968526;28;19933;-62
2024/02/14 10:16:59;;;;;;;;;;;9.00;88.80;;;;;;4968675;28;19930;-61
2024/02/14 10:23:30;;;;;;;;;;;9.00;88.60;;;;;;4966089;28;19930;-61
2024/02/14 10:26:04;;;;;;;;;;;9.10;88.60;;;;;;4971541;28;20017;-60
2024/02/14 10:28:38;;;;;;;;;;;9.20;88.50;;;;;;4972955;28;19937;-61
2024/02/14 10:31:13;;;;;;;;;;;9.20;88.40;;;;;;4971713;28;19933;-62
2024/02/14 10:33:46;;;;;;;;;;;9.20;88.50;;;;;;4972912;28;19929;-60
2024/02/14 10:36:20;;;;;;;;;;;9.20;88.60;;;;;;4970459;28;20021;-61
2024/02/14 10:38:49;;;;;;;;;;;9.20;88.50;;;;;;4971631;28;19930;-60
2024/02/14 10:41:22;;;;;;;;;;;9.20;88.50;;;;;;4971991;28;19936;-61
2024/02/14 10:43:56;;;;;;;;;;;9.20;88.50;;;;;;4972178;28;19937;-61
2024/02/14 10:46:33;;;;;;;;;;;9.20;88.50;;;;;;4970790;28;19937;-61
2024/02/14 10:49:07;;;;;;;;;;;9.30;88.50;;;;;;4972002;28;19926;-61
2024/02/14 10:51:41;;;;;;;;;;;9.40;88.30;;;;;;4971794;28;20511;-62
2024/02/14 10:54:16;;;;;;;;;;;9.50;88.30;;;;;;4970404;28;19933;-60
2024/02/14 10:56:51;;;;;;;;;;;9.40;88.30;;;;;;4971146;28;20369;-61
2024/02/14 10:59:25;;;;;;;;;;;9.50;88.30;;;;;;4971610;28;19926;-61
2024/02/14 11:01:59;;;;;;;;;;;9.60;88.30;;;;;;4970691;28;19926;-62
2024/02/14 11:04:33;;;;;;;;;;;9.70;88.20;;;;;;4971536;28;19930;-60
2024/02/14 11:07:10;;;;;;;;;;;9.70;88.10;;;;;;4970614;28;20008;-61
2024/02/14 11:09:42;;;;;;;;;;;9.60;88.10;;;;;;4971638;28;19937;-61
2024/02/14 11:12:16;;;;;;;;;;;9.70;88.10;;;;;;4969139;28;19965;-60
2024/02/14 11:14:52;;;;;;;;;;;9.70;88.10;;;;;;4971166;28;19953;-60
2024/02/14 11:17:27;;;;;;;;;;;9.70;88.10;;;;;;4970628;28;19973;-61
2024/02/14 11:20:01;;;;;;;;;;;9.70;88.10;;;;;;4968627;28;20377;-61
2024/02/14 11:22:35;;;;;;;;;;;9.80;88.00;;;;;;4969280;28;20018;-60
2024/02/14 11:25:08;;;;;;;;;;;9.70;87.90;;;;;;4966805;28;20345;-60
2024/02/14 11:28:17;;;;;;;;;;;9.80;87.90;;;;;;4970453;28;19976;-61
2024/02/14 11:30:51;;;;;;;;;;;9.90;87.80;;;;;;4970491;28;19933;-60
2024/02/14 11:33:25;;;;;;;;;;;10.00;87.80;;;;;;4969240;28;19977;-62
2024/02/14 11:35:59;;;;;;;;;;;10.00;87.60;;;;;;4971116;28;19992;-61
2024/02/14 11:42:09;;;;;;;;;;;10.10;87.50;;;;;;4969801;28;19926;-61
2024/02/14 11:44:42;;;;;;;;;;;10.10;87.40;;;;;;4968903;28;20559;-61
2024/02/14 11:47:16;;;;;;;;;;;10.10;87.40;;;;;;4968276;28;20388;-63
2024/02/14 11:49:50;;;;;;;;;;;10.10;87.40;;;;;;4971026;28;19956;-61
2024/02/14 11:52:37;;;;;;;;;;;10.10;87.30;;;;;;4970110;28;19937;-60
2024/02/14 11:55:28;;;;;;;;;;;10.20;87.30;;;;;;4969793;28;19926;-61
2024/02/14 11:58:10;;;;;;;;;;;10.20;87.30;;;;;;4965325;28;19926;-61
2024/02/14 12:00:43;;;;;;;;;;;10.20;87.30;;;;;;4962928;28;19926;-60
2024/02/14 12:03:18;;;;;;;;;;;10.30;87.20;;;;;;4968199;28;20025;-61
2024/02/14 12:05:53;;;;;;;;;;;10.40;87.10;;;;;;4969706;28;20401;-62
2024/02/14 12:08:27;;;;;;;;;;;10.40;87.00;;;;;;4969155;28;19941;-61
2024/02/14 12:10:54;;;;;;;;;;;10.50;87.00;;;;;;4969560;28;19930;-60
2024/02/14 12:13:32;;;;;;;;;;;10.50;86.90;;;;;;4970326;28;20338;-61
2024/02/14 12:16:07;;;;;;;;;;;10.50;86.70;;;;;;4968363;28;19933;-61
2024/02/14 12:18:41;;;;;;;;;;;10.60;86.80;;;;;;4970696;28;19930;-60
2024/02/14 12:21:15;;;;;;;;;;;10.60;86.80;;;;;;4969875;28;20266;-61
2024/02/14 12:23:53;;;;;;;;;;;10.70;86.70;;;;;;4969946;28;20069;-61
2024/02/14 12:26:27;;;;;;;;;;;10.70;86.50;;;;;;4970913;28;19957;-61
2024/02/14 12:29:02;;;;;;;;;;;10.70;86.50;;;;;;4969895;28;19926;-60
2024/02/14 12:31:35;;;;;;;;;;;10.70;86.60;;;;;;4964263;28;20389;-61
2024/02/14 12:34:11;;;;;;;;;;;10.70;86.60;;;;;;4970326;28;19930;-60
2024/02/14 12:36:46;;;;;;;;;;;10.80;86.40;;;;;;4970133;28;20385;-62
2024/02/14 12:39:20;;;;;;;;;;;10.80;86.40;;;;;;4964884;28;19931;-60
2024/02/14 12:41:54;;;;;;;;;;;10.90;86.40;;;;;;4968191;28;20381;-62
2024/02/14 12:44:28;;;;;;;;;;;10.90;86.40;;;;;;4969290;28;19972;-60
2024/02/14 12:47:01;;;;;;;;;;;10.80;86.30;;;;;;4969287;28;20016;-60
2024/02/14 12:49:34;;;;;;;;;;;10.90;86.20;;;;;;4968730;28;19930;-59
2024/02/14 12:52:09;;;;;;;;;;;10.90;86.20;;;;;;4968792;28;19926;-61
2024/02/14 12:54:44;;;;;;;;;;;10.90;86.00;;;;;;4969406;28;21166;-60
2024/02/14 12:57:17;;;;;;;;;;;11.00;86.10;;;;;;4962077;28;19932;-60
2024/02/14 12:59:50;;;;;;;;;;;11.00;86.00;;;;;;4960486;28;19941;-61
2024/02/14 13:02:24;;;;;;;;;;;11.00;86.00;;;;;;4957055;28;19938;-61
2024/02/14 13:04:59;;;;;;;;;;;11.00;85.90;;;;;;4961207;28;19969;-60
2024/02/14 13:07:33;;;;;;;;;;;11.00;86.00;;;;;;4960519;28;20097;-60
2024/02/14 13:10:00;;;;;;;;;;;10.90;86.10;;;;;;4964125;28;19937;-60
2024/02/14 13:12:33;;;;;;;;;;;10.80;86.20;;;;;;4966013;28;20695;-60
2024/02/14 13:15:06;;;;;;;;;;;10.80;86.10;;;;;;4963996;28;20033;-61
2024/02/14 13:17:40;;;;;;;;;;;10.70;86.20;;;;;;4965208;28;20029;-60
2024/02/14 13:20:14;;;;;;;;;;;10.70;86.20;;;;;;4962244;28;19945;-61
2024/02/14 13:22:49;;;;;;;;;;;10.70;86.30;;;;;;4961416;28;19929;-61
2024/02/14 13:25:23;;;;;;;;;;;10.60;86.30;;;;;;4964036;28;19934;-60
2024/02/14 13:27:57;;;;;;;;;;;10.70;86.30;;;;;;4964605;28;20380;-61
2024/02/14 13:30:31;;;;;;;;;;;10.60;86.40;;;;;;4962533;28;19940;-61
2024/02/14 13:33:04;;;;;;;;;;;10.60;86.40;;;;;;4963760;28;19934;-59
2024/02/14 13:35:38;;;;;;;;;;;10.60;86.50;;;;;;4963425;28;20004;-61
2024/02/14 13:38:13;;;;;;;;;;;10.60;86.50;;;;;;4965296;28;20012;-59
2024/02/14 13:40:47;;;;;;;;;;;10.60;86.60;;;;;;4962508;28;19926;-61
2024/02/14 13:43:13;;;;;;;;;;;10.60;86.70;;;;;;4965460;28;19981;-60
2024/02/14 13:45:48;;;;;;;;;;;10.50;86.60;;;;;;4964079;28;20588;-61
2024/02/14 13:48:22;;;;;;;;;;;10.50;86.70;;;;;;4963005;28;20193;-61
2024/02/14 13:50:55;;;;;;;;;;;10.60;86.80;;;;;;4956682;28;20285;-59
2024/02/14 13:56:31;;;;;;;;;;;10.50;86.70;;;;;;4964014;28;20607;-60
2024/02/14 13:59:05;;;;;;;;;;;10.50;87.00;;;;;;4962676;28;19966;-60
2024/02/14 14:01:38;;;;;;;;;;;10.50;86.90;;;;;;4966618;28;19941;-59
2024/02/14 14:04:12;;;;;;;;;;;10.60;86.80;;;;;;4970121;28;19933;-61
2024/02/14 14:06:47;;;;;;;;;;;10.50;86.80;;;;;;4969577;28;19929;-61
2024/02/14 14:09:21;;;;;;;;;;;10.50;86.90;;;;;;4969414;28;19937;-60
2024/02/14 14:11:55;;;;;;;;;;;10.50;86.80;;;;;;4971030;28;19934;-60
2024/02/14 14:14:29;;;;;;;;;;;10.50;86.90;;;;;;4972273;28;19934;-60
2024/02/14 14:17:03;;;;;;;;;;;10.50;86.80;;;;;;4962377;28;20289;-61
2024/02/14 14:19:36;;;;;;;;;;;10.50;86.80;;;;;;4972742;28;19976;-59
2024/02/14 14:22:10;;;;;;;;;;;10.50;87.00;;;;;;4971258;28;19930;-60
2024/02/14 14:24:45;;;;;;;;;;;10.50;86.90;;;;;;4970500;28;19937;-60
2024/02/14 14:27:21;;;;;;;;;;;10.50;87.00;;;;;;4969822;28;20021;-59
2024/02/14 14:29:54;;;;;;;;;;;10.50;87.00;;;;;;4970815;28;19962;-58
2024/02/14 14:32:27;;;;;;;;;;;10.50;87.00;;;;;;4971159;28;19930;-61
2024/02/14 14:35:00;;;;;;;;;;;10.50;87.10;;;;;;4969309;28;19930;-63
2024/02/14 14:37:34;;;;;;;;;;;10.50;87.10;;;;;;4970258;28;19930;-60
2024/02/14 14:40:10;;;;;;;;;;;10.50;87.20;;;;;;4970589;28;20016;-61
2024/02/14 14:42:43;;;;;;;;;;;10.50;87.10;;;;;;4960646;28;19981;-61
2024/02/14 14:45:16;;;;;;;;;;;10.50;87.10;;;;;;4969643;28;19934;-61
2024/02/14 14:47:50;;;;;;;;;;;10.50;87.10;;;;;;4968475;28;19973;-60
2024/02/14 14:50:25;;;;;;;;;;;10.50;87.20;;;;;;4969648;28;19981;-60
2024/02/14 14:52:58;;;;;;;;;;;10.50;87.30;;;;;;4971694;28;20516;-60
2024/02/14 14:55:51;;;;;;;;;;;10.60;87.20;;;;;;4972108;28;19926;-61
2024/02/14 14:58:26;;;;;;;;;;;10.60;87.30;;;;;;4969939;28;20585;-60
2024/02/14 15:01:00;;;;;;;;;;;10.50;87.40;;;;;;4965470;28;19965;-62
2024/02/14 15:03:33;;;;;;;;;;;10.50;87.40;;;;;;4967222;28;19933;-61
2024/02/14 15:06:07;;;;;;;;;;;10.50;87.60;;;;;;4966034;28;19934;-60
2024/02/14 15:08:45;;;;;;;;;;;10.50;87.60;;;;;;4966982;28;19930;-60
2024/02/14 15:11:20;;;;;;;;;;;10.50;87.70;;;;;;4969280;28;19966;-60
2024/02/14 15:13:54;;;;;;;;;;;10.50;87.70;;;;;;4968521;28;19926;-61
2024/02/14 15:16:28;;;;;;;;;;;10.50;87.90;;;;;;4968916;28;20006;-61
2024/02/14 15:18:56;;;;;;;;;;;10.50;88.00;;;;;;4967286;28;19934;-61
2024/02/14 15:21:29;;;;;;;;;;;10.40;88.10;;;;;;4969808;28;20454;-61
2024/02/14 15:24:03;;;;;;;;;;;10.40;88.10;;;;;;4958572;28;20536;-61
2024/02/14 15:26:49;;;;;;;;;;;10.40;88.20;;;;;;4966771;28;21542;-60
2024/02/14 15:35:11;;;;;;;;;;;10.40;88.30;;;;;;4968065;28;19945;-62